Back to Top

Language: 

My Weather Underground Personal Weather Station Historical Data with Graphs...

Delerius Weather Station Historical Data
Daily Summary for January 23, 2017 Units:  Metric    English   Both
« Previous Day
Next Day »
Daily Weekly Monthly Yearly Custom
  High: Low: Average:
Temperature: 5.8 °C -3.3 °C 1.1 °C
Dew Point: 3.7 °C -3.7 °C 0.1 °C
Humidity: 98 % 83 % 94 %
Wind Speed: 0 km/h 0 km/h 0 km/h
Wind Gust: -1607.7 km/h - -
Wind:- - North
Pressure: 1027.3 hPa 1024.9 hPa -
Precipitation: 0 mm    
Historical Graphs
 
 
Tabular Data for January 23, 2017
Time Temperature Dew Point Pressure Wind Wind Speed Wind Gust Humidity Rainfall Rate (Hourly) solar Conditions
00:01 0.9 °C 0.3 °C 1026.6 hPa Calm   -1607.7 km/h 96 % 0 mm 0 W/m2
00:06 0.9 °C 0.3 °C 1026.6 hPa Calm   -1607.7 km/h 96 % 0 mm 0 W/m2
00:11 0.9 °C 0.3 °C 1026.6 hPa Calm   -1607.7 km/h 96 % 0 mm 0 W/m2
00:16 0.9 °C 0.3 °C 1026.6 hPa Calm   -1607.7 km/h 96 % 0 mm 0 W/m2
00:21 0.9 °C 0.3 °C 1026.6 hPa Calm   -1607.7 km/h 96 % 0 mm 0 W/m2
00:26 0.8 °C 0.2 °C 1026.6 hPa Calm   -1607.7 km/h 96 % 0 mm 0 W/m2
00:31 0.8 °C 0.2 °C 1026.6 hPa Calm   -1607.7 km/h 96 % 0 mm 0 W/m2
00:36 0.8 °C 0.2 °C 1026.6 hPa Calm   -1607.7 km/h 96 % 0 mm 0 W/m2
00:41 0.6 °C -0.2 °C 1026.3 hPa Calm   -1607.7 km/h 95 % 0 mm 0 W/m2
00:46 0.6 °C -0.2 °C 1026.3 hPa Calm   -1607.7 km/h 95 % 0 mm 0 W/m2
00:51 0.6 °C -0.2 °C 1026.3 hPa Calm   -1607.7 km/h 95 % 0 mm 0 W/m2
00:56 0.3 °C -0.4 °C 1026.3 hPa Calm   -1607.7 km/h 95 % 0 mm 0 W/m2
01:01 0.3 °C -0.4 °C 1026.3 hPa Calm   -1607.7 km/h 95 % 0 mm 0 W/m2
01:06 0.3 °C -0.4 °C 1026.3 hPa Calm   -1607.7 km/h 95 % 0 mm 0 W/m2
01:11 -0.1 °C -0.8 °C 1026.3 hPa Calm   -1607.7 km/h 95 % 0 mm 0 W/m2
01:16 -0.1 °C -0.8 °C 1026.3 hPa Calm   -1607.7 km/h 95 % 0 mm 0 W/m2
01:21 -0.1 °C -0.8 °C 1026.3 hPa Calm   -1607.7 km/h 95 % 0 mm 0 W/m2
01:26 -0.4 °C -1 °C 1026.3 hPa Calm   -1607.7 km/h 96 % 0 mm 0 W/m2
01:31 -0.4 °C -1 °C 1026.3 hPa Calm   -1607.7 km/h 96 % 0 mm 0 W/m2
01:36 -0.4 °C -1 °C 1026.3 hPa Calm   -1607.7 km/h 96 % 0 mm 0 W/m2
01:41 -0.7 °C -1.2 °C 1026.3 hPa Calm   -1607.7 km/h 96 % 0 mm 0 W/m2
01:46 -0.7 °C -1.2 °C 1026.3 hPa Calm   -1607.7 km/h 96 % 0 mm 0 W/m2
01:51 -0.7 °C -1.2 °C 1026.3 hPa Calm   -1607.7 km/h 96 % 0 mm 0 W/m2
01:56 -0.7 °C -1.2 °C 1026.6 hPa Calm   -1607.7 km/h 96 % 0 mm 0 W/m2
02:01 -0.7 °C -1.2 °C 1026.6 hPa Calm   -1607.7 km/h 96 % 0 mm 0 W/m2
02:06 -0.7 °C -1.2 °C 1026.6 hPa Calm   -1607.7 km/h 96 % 0 mm 0 W/m2
02:11 -0.7 °C -1.2 °C 1026.3 hPa Calm   -1607.7 km/h 96 % 0 mm 0 W/m2
02:16 -0.7 °C -1.2 °C 1026.3 hPa Calm   -1607.7 km/h 96 % 0 mm 0 W/m2
02:21 -0.7 °C -1.2 °C 1026.3 hPa Calm   -1607.7 km/h 96 % 0 mm 0 W/m2
02:26 -0.9 °C -1.4 °C 1026.3 hPa Calm   -1607.7 km/h 96 % 0 mm 0 W/m2
02:31 -0.9 °C -1.4 °C 1026.3 hPa Calm   -1607.7 km/h 96 % 0 mm 0 W/m2
02:36 -0.9 °C -1.4 °C 1026.3 hPa Calm   -1607.7 km/h 96 % 0 mm 0 W/m2
02:41 -1.1 °C -1.6 °C 1026.3 hPa Calm   -1607.7 km/h 96 % 0 mm 0 W/m2
02:46 -1.1 °C -1.6 °C 1026.3 hPa Calm   -1607.7 km/h 96 % 0 mm 0 W/m2
02:51 -1.1 °C -1.6 °C 1026.3 hPa Calm   -1607.7 km/h 96 % 0 mm 0 W/m2
02:56 -1.3 °C -1.8 °C 1026.3 hPa Calm   -1607.7 km/h 96 % 0 mm 0 W/m2
03:01 -1.3 °C -1.8 °C 1026.3 hPa Calm   -1607.7 km/h 96 % 0 mm 0 W/m2
03:06 -1.3 °C -1.8 °C 1026.3 hPa Calm   -1607.7 km/h 96 % 0 mm 0 W/m2
03:11 -1.1 °C -1.5 °C 1026.3 hPa Calm   -1607.7 km/h 97 % 0 mm 0 W/m2
03:16 -1.1 °C -1.5 °C 1026.3 hPa Calm   -1607.7 km/h 97 % 0 mm 0 W/m2
03:21 -1.1 °C -1.5 °C 1026.3 hPa Calm   -1607.7 km/h 97 % 0 mm 0 W/m2
03:26 -0.9 °C -1.5 °C 1026.3 hPa Calm   -1607.7 km/h 96 % 0 mm 0 W/m2
03:31 -0.9 °C -1.5 °C 1026.3 hPa Calm   -1607.7 km/h 96 % 0 mm 0 W/m2
03:36 -0.9 °C -1.5 °C 1026.3 hPa Calm   -1607.7 km/h 96 % 0 mm 0 W/m2
03:41 -1.2 °C -1.8 °C 1026.3 hPa Calm   -1607.7 km/h 96 % 0 mm 0 W/m2
03:46 -1.2 °C -1.8 °C 1026.3 hPa Calm   -1607.7 km/h 96 % 0 mm 0 W/m2
03:51 -1.2 °C -1.8 °C 1026.3 hPa Calm   -1607.7 km/h 96 % 0 mm 0 W/m2
03:56 -1.6 °C -2.1 °C 1026.3 hPa Calm   -1607.7 km/h 96 % 0 mm 0 W/m2
04:01 -1.6 °C -2.1 °C 1026.3 hPa Calm   -1607.7 km/h 96 % 0 mm 0 W/m2
04:06 -1.6 °C -2.1 °C 1026.3 hPa Calm   -1607.7 km/h 96 % 0 mm 0 W/m2
04:11 -1.6 °C -2.2 °C 1026.3 hPa Calm   -1607.7 km/h 96 % 0 mm 0 W/m2
04:16 -1.6 °C -2.2 °C 1026.3 hPa Calm   -1607.7 km/h 96 % 0 mm 0 W/m2
04:21 -1.6 °C -2.2 °C 1026.3 hPa Calm   -1607.7 km/h 96 % 0 mm 0 W/m2
04:26 -1.8 °C -2.3 °C 1026.3 hPa Calm   -1607.7 km/h 96 % 0 mm 0 W/m2
04:31 -1.8 °C -2.3 °C 1026.3 hPa Calm   -1607.7 km/h 96 % 0 mm 0 W/m2
04:36 -1.8 °C -2.3 °C 1026.3 hPa Calm   -1607.7 km/h 96 % 0 mm 0 W/m2
04:41 -2.1 °C -2.6 °C 1026.6 hPa Calm   -1607.7 km/h 96 % 0 mm 0 W/m2
04:46 -2.1 °C -2.6 °C 1026.6 hPa Calm   -1607.7 km/h 96 % 0 mm 0 W/m2
04:51 -2.1 °C -2.6 °C 1026.6 hPa Calm   -1607.7 km/h 96 % 0 mm 0 W/m2
04:56 -2.3 °C -2.8 °C 1026.6 hPa Calm   -1607.7 km/h 96 % 0 mm 0 W/m2
05:01 -2.3 °C -2.8 °C 1026.6 hPa Calm   -1607.7 km/h 96 % 0 mm 0 W/m2
05:06 -2.3 °C -2.8 °C 1026.6 hPa Calm   -1607.7 km/h 96 % 0 mm 0 W/m2
05:11 -2.4 °C -3 °C 1026.6 hPa Calm   -1607.7 km/h 96 % 0 mm 0 W/m2
05:16 -2.4 °C -3 °C 1026.6 hPa Calm   -1607.7 km/h 96 % 0 mm 0 W/m2
05:21 -2.4 °C -3 °C 1026.6 hPa Calm   -1607.7 km/h 96 % 0 mm 0 W/m2
05:26 -2.5 °C -3.1 °C 1026.3 hPa Calm   -1607.7 km/h 96 % 0 mm 0 W/m2
05:31 -2.5 °C -3.1 °C 1026.3 hPa Calm   -1607.7 km/h 96 % 0 mm 0 W/m2
05:36 -2.5 °C -3.1 °C 1026.3 hPa Calm   -1607.7 km/h 96 % 0 mm 0 W/m2
05:41 -2.6 °C -3.2 °C 1026.3 hPa Calm   -1607.7 km/h 96 % 0 mm 0 W/m2
05:46 -2.6 °C -3.2 °C 1026.3 hPa Calm   -1607.7 km/h 96 % 0 mm 0 W/m2
05:51 -2.6 °C -3.2 °C 1026.3 hPa Calm   -1607.7 km/h 96 % 0 mm 0 W/m2
05:56 -2.8 °C -3.3 °C 1026.3 hPa Calm   -1607.7 km/h 96 % 0 mm 0 W/m2
06:01 -2.8 °C -3.3 °C 1026.3 hPa Calm   -1607.7 km/h 96 % 0 mm 0 W/m2
06:06 -2.8 °C -3.3 °C 1026.3 hPa Calm   -1607.7 km/h 96 % 0 mm 0 W/m2
06:11 -2.9 °C -3.5 °C 1026.3 hPa Calm   -1607.7 km/h 96 % 0 mm 0 W/m2
06:16 -2.9 °C -3.5 °C 1026.3 hPa Calm   -1607.7 km/h 96 % 0 mm 0 W/m2
06:21 -2.9 °C -3.5 °C 1026.3 hPa Calm   -1607.7 km/h 96 % 0 mm 0 W/m2
06:26 -3.1 °C -3.7 °C 1026.3 hPa Calm   -1607.7 km/h 96 % 0 mm 0 W/m2
06:31 -3.1 °C -3.7 °C 1026.3 hPa Calm   -1607.7 km/h 96 % 0 mm 0 W/m2
06:36 -3.1 °C -3.7 °C 1026.3 hPa Calm   -1607.7 km/h 96 % 0 mm 0 W/m2
06:41 -3.2 °C -3.6 °C 1026.3 hPa Calm   -1607.7 km/h 97 % 0 mm 0 W/m2
06:46 -3.2 °C -3.6 °C 1026.3 hPa Calm   -1607.7 km/h 97 % 0 mm 0 W/m2
06:51 -3.2 °C -3.6 °C 1026.3 hPa Calm   -1607.7 km/h 97 % 0 mm 0 W/m2
06:56 -3.2 °C -3.6 °C 1026.3 hPa Calm   -1607.7 km/h 97 % 0 mm 0 W/m2
07:01 -3.2 °C -3.6 °C 1026.3 hPa Calm   -1607.7 km/h 97 % 0 mm 0 W/m2
07:06 -3.2 °C -3.6 °C 1026.3 hPa Calm   -1607.7 km/h 97 % 0 mm 0 W/m2
07:11 -3.1 °C -3.5 °C 1026.3 hPa Calm   -1607.7 km/h 97 % 0 mm 0 W/m2
07:16 -3.1 °C -3.5 °C 1026.3 hPa Calm   -1607.7 km/h 97 % 0 mm 0 W/m2
07:21 -3.1 °C -3.5 °C 1026.3 hPa Calm   -1607.7 km/h 97 % 0 mm 0 W/m2
07:26 -3 °C -3.4 °C 1026.6 hPa Calm   -1607.7 km/h 97 % 0 mm 0 W/m2
07:31 -3 °C -3.4 °C 1026.6 hPa Calm   -1607.7 km/h 97 % 0 mm 0 W/m2
07:36 -3 °C -3.4 °C 1026.6 hPa Calm   -1607.7 km/h 97 % 0 mm 0 W/m2
07:41 -3.2 °C -3.6 °C 1026.6 hPa Calm   -1607.7 km/h 97 % 0 mm 0 W/m2
07:46 -3.2 °C -3.6 °C 1026.6 hPa Calm   -1607.7 km/h 97 % 0 mm 0 W/m2
07:51 -3.2 °C -3.6 °C 1026.6 hPa Calm   -1607.7 km/h 97 % 0 mm 0 W/m2
07:56 -3.3 °C -3.7 °C 1026.6 hPa Calm   -1607.7 km/h 97 % 0 mm 0 W/m2
08:01 -3.3 °C -3.7 °C 1026.6 hPa Calm   -1607.7 km/h 97 % 0 mm 0 W/m2
08:06 -3.3 °C -3.7 °C 1026.6 hPa Calm   -1607.7 km/h 97 % 0 mm 0 W/m2
08:11 -3.3 °C -3.7 °C 1027 hPa Calm   -1607.7 km/h 97 % 0 mm 5 W/m2
08:16 -3.3 °C -3.7 °C 1027 hPa Calm   -1607.7 km/h 97 % 0 mm 5 W/m2
08:21 -3.3 °C -3.7 °C 1027 hPa Calm   -1607.7 km/h 97 % 0 mm 5 W/m2
08:26 -3.2 °C -3.6 °C 1027 hPa Calm   -1607.7 km/h 97 % 0 mm 13 W/m2
08:31 -3.2 °C -3.6 °C 1027 hPa Calm   -1607.7 km/h 97 % 0 mm 13 W/m2
08:36 -3.2 °C -3.6 °C 1027 hPa Calm   -1607.7 km/h 97 % 0 mm 13 W/m2
08:41 -2.9 °C -3.3 °C 1027.3 hPa Calm   -1607.7 km/h 97 % 0 mm 15 W/m2
08:46 -2.9 °C -3.3 °C 1027.3 hPa Calm   -1607.7 km/h 97 % 0 mm 15 W/m2
08:51 -2.9 °C -3.3 °C 1027.3 hPa Calm   -1607.7 km/h 97 % 0 mm 15 W/m2
08:56 -2.6 °C -2.8 °C 1027.3 hPa Calm   -1607.7 km/h 98 % 0 mm 38 W/m2
09:01 -2.6 °C -2.8 °C 1027.3 hPa Calm   -1607.7 km/h 98 % 0 mm 38 W/m2
09:06 -2.6 °C -2.8 °C 1027.3 hPa Calm   -1607.7 km/h 98 % 0 mm 38 W/m2
09:11 -2.1 °C -2.3 °C 1027.3 hPa Calm   -1607.7 km/h 98 % 0 mm 32 W/m2
09:16 -2.1 °C -2.3 °C 1027.3 hPa Calm   -1607.7 km/h 98 % 0 mm 32 W/m2
09:21 -2.1 °C -2.3 °C 1027.3 hPa Calm   -1607.7 km/h 98 % 0 mm 32 W/m2
09:26 -1.6 °C -1.9 °C 1027.3 hPa Calm   -1607.7 km/h 98 % 0 mm 55 W/m2
09:31 -1.6 °C -1.9 °C 1027.3 hPa Calm   -1607.7 km/h 98 % 0 mm 55 W/m2
09:36 -1.6 °C -1.9 °C 1027.3 hPa Calm   -1607.7 km/h 98 % 0 mm 55 W/m2
09:41 -1.4 °C -1.8 °C 1027.3 hPa Calm   -1607.7 km/h 97 % 0 mm 38 W/m2
09:46 -1.4 °C -1.8 °C 1027.3 hPa Calm   -1607.7 km/h 97 % 0 mm 38 W/m2
09:51 -1.4 °C -1.8 °C 1027.3 hPa Calm   -1607.7 km/h 97 % 0 mm 38 W/m2
09:56 -0.9 °C -1.2 °C 1027.3 hPa Calm   -1607.7 km/h 98 % 0 mm 149 W/m2
10:01 -0.9 °C -1.2 °C 1027.3 hPa Calm   -1607.7 km/h 98 % 0 mm 149 W/m2
10:06 -0.9 °C -1.2 °C 1027.3 hPa Calm   -1607.7 km/h 98 % 0 mm 149 W/m2
10:11 0 °C -0.3 °C 1027.3 hPa Calm   -1607.7 km/h 98 % 0 mm 217 W/m2
10:16 0 °C -0.3 °C 1027.3 hPa Calm   -1607.7 km/h 98 % 0 mm 217 W/m2
10:21 0 °C -0.3 °C 1027.3 hPa Calm   -1607.7 km/h 98 % 0 mm 217 W/m2
10:26 0.8 °C 0.5 °C 1027.3 hPa Calm   -1607.7 km/h 98 % 0 mm 236 W/m2
10:31 0.8 °C 0.5 °C 1027.3 hPa Calm   -1607.7 km/h 98 % 0 mm 236 W/m2
10:36 0.8 °C 0.5 °C 1027.3 hPa Calm   -1607.7 km/h 98 % 0 mm 236 W/m2
10:41 1.5 °C 1.2 °C 1027.3 hPa Calm   -1607.7 km/h 98 % 0 mm 254 W/m2
10:46 1.5 °C 1.2 °C 1027.3 hPa Calm   -1607.7 km/h 98 % 0 mm 254 W/m2
10:51 1.5 °C 1.2 °C 1027.3 hPa Calm   -1607.7 km/h 98 % 0 mm 254 W/m2
10:56 2 °C 1.6 °C 1027.3 hPa Calm   -1607.7 km/h 97 % 0 mm 267 W/m2
11:01 2 °C 1.6 °C 1027.3 hPa Calm   -1607.7 km/h 97 % 0 mm 267 W/m2
11:06 2 °C 1.6 °C 1027.3 hPa Calm   -1607.7 km/h 97 % 0 mm 267 W/m2
11:11 2.8 °C 2.3 °C 1027 hPa Calm   -1607.7 km/h 97 % 0 mm 282 W/m2
11:16 2.8 °C 2.3 °C 1027 hPa Calm   -1607.7 km/h 97 % 0 mm 282 W/m2
11:21 2.8 °C 2.3 °C 1027 hPa Calm   -1607.7 km/h 97 % 0 mm 282 W/m2
11:26 3.7 °C 2.8 °C 1027 hPa Calm   -1607.7 km/h 94 % 0 mm 294 W/m2
11:31 3.7 °C 2.8 °C 1027 hPa Calm   -1607.7 km/h 94 % 0 mm 294 W/m2
11:36 3.7 °C 2.8 °C 1027 hPa Calm   -1607.7 km/h 94 % 0 mm 294 W/m2
11:41 4.8 °C 2.9 °C 1027 hPa Calm   -1607.7 km/h 88 % 0 mm 275 W/m2
11:46 4.8 °C 2.9 °C 1027 hPa Calm   -1607.7 km/h 88 % 0 mm 275 W/m2
11:51 4.8 °C 2.9 °C 1027 hPa Calm   -1607.7 km/h 88 % 0 mm 275 W/m2
11:56 5.1 °C 2.8 °C 1027 hPa Calm   -1607.7 km/h 85 % 0 mm 112 W/m2
12:01 5.1 °C 2.8 °C 1027 hPa Calm   -1607.7 km/h 85 % 0 mm 112 W/m2
12:06 5.1 °C 2.8 °C 1027 hPa Calm   -1607.7 km/h 85 % 0 mm 112 W/m2
12:11 5.1 °C 2.9 °C 1026.6 hPa Calm   -1607.7 km/h 86 % 0 mm 101 W/m2
12:16 5.1 °C 2.9 °C 1026.6 hPa Calm   -1607.7 km/h 86 % 0 mm 101 W/m2
12:21 5.1 °C 2.9 °C 1026.6 hPa Calm   -1607.7 km/h 86 % 0 mm 101 W/m2
12:26 5 °C 2.8 °C 1026.6 hPa Calm   -1607.7 km/h 86 % 0 mm 108 W/m2
12:31 5 °C 2.8 °C 1026.6 hPa Calm   -1607.7 km/h 86 % 0 mm 108 W/m2
12:36 5 °C 2.8 °C 1026.6 hPa Calm   -1607.7 km/h 86 % 0 mm 108 W/m2
12:41 4.8 °C 3 °C 1026.6 hPa Calm   -1607.7 km/h 88 % 0 mm 119 W/m2
12:46 4.8 °C 3 °C 1026.6 hPa Calm   -1607.7 km/h 88 % 0 mm 119 W/m2
12:51 4.8 °C 3 °C 1026.6 hPa Calm   -1607.7 km/h 88 % 0 mm 119 W/m2
12:56 4.8 °C 2.8 °C 1026.6 hPa Calm   -1607.7 km/h 87 % 0 mm 122 W/m2
13:01 4.8 °C 2.8 °C 1026.6 hPa Calm   -1607.7 km/h 87 % 0 mm 122 W/m2
13:06 4.8 °C 2.8 °C 1026.6 hPa Calm   -1607.7 km/h 87 % 0 mm 122 W/m2
13:11 4.8 °C 2.8 °C 1026.3 hPa Calm   -1607.7 km/h 87 % 0 mm 135 W/m2
13:16 4.8 °C 2.8 °C 1026.3 hPa Calm   -1607.7 km/h 87 % 0 mm 135 W/m2
13:21 4.8 °C 2.8 °C 1026.3 hPa Calm   -1607.7 km/h 87 % 0 mm 135 W/m2
13:26 5 °C 2.7 °C 1026.3 hPa Calm   -1607.7 km/h 85 % 0 mm 126 W/m2
13:31 5 °C 2.7 °C 1026.3 hPa Calm   -1607.7 km/h 85 % 0 mm 126 W/m2
13:36 5 °C 2.7 °C 1026.3 hPa Calm   -1607.7 km/h 85 % 0 mm 126 W/m2
13:41 5.3 °C 2.6 °C 1026.3 hPa Calm   -1607.7 km/h 83 % 0 mm 112 W/m2
13:46 5.3 °C 2.6 °C 1026.3 hPa Calm   -1607.7 km/h 83 % 0 mm 112 W/m2
13:51 5.3 °C 2.6 °C 1026.3 hPa Calm   -1607.7 km/h 83 % 0 mm 112 W/m2
13:56 5.4 °C 2.8 °C 1026 hPa Calm   -1607.7 km/h 83 % 0 mm 94 W/m2
14:01 5.4 °C 2.8 °C 1026 hPa Calm   -1607.7 km/h 83 % 0 mm 94 W/m2
14:06 5.4 °C 2.8 °C 1026 hPa Calm   -1607.7 km/h 83 % 0 mm 94 W/m2
14:11 5.6 °C 2.9 °C 1026 hPa Calm   -1607.7 km/h 83 % 0 mm 77 W/m2
14:16 5.6 °C 2.9 °C 1026 hPa Calm   -1607.7 km/h 83 % 0 mm 77 W/m2
14:21 5.6 °C 2.9 °C 1026 hPa Calm   -1607.7 km/h 83 % 0 mm 77 W/m2
14:26 5.7 °C 3 °C 1026 hPa Calm   -1607.7 km/h 83 % 0 mm 100 W/m2
14:31 5.7 °C 3 °C 1026 hPa Calm   -1607.7 km/h 83 % 0 mm 100 W/m2
14:36 5.7 °C 3 °C 1026 hPa Calm   -1607.7 km/h 83 % 0 mm 100 W/m2
14:41 5.8 °C 3.1 °C 1026 hPa Calm   -1607.7 km/h 83 % 0 mm 51 W/m2
14:46 5.8 °C 3.1 °C 1026 hPa Calm   -1607.7 km/h 83 % 0 mm 51 W/m2
14:51 5.8 °C 3.1 °C 1026 hPa Calm   -1607.7 km/h 83 % 0 mm 51 W/m2
14:56 5.8 °C 3.1 °C 1026 hPa Calm   -1607.7 km/h 83 % 0 mm 62 W/m2
15:01 5.8 °C 3.1 °C 1026 hPa Calm   -1607.7 km/h 83 % 0 mm 62 W/m2
15:06 5.8 °C 3.1 °C 1026 hPa Calm   -1607.7 km/h 83 % 0 mm 62 W/m2
15:11 5.7 °C 3.1 °C 1025.6 hPa Calm   -1607.7 km/h 83 % 0 mm 29 W/m2
15:16 5.7 °C 3.1 °C 1025.6 hPa Calm   -1607.7 km/h 83 % 0 mm 29 W/m2
15:21 5.7 °C 3.1 °C 1025.6 hPa Calm   -1607.7 km/h 83 % 0 mm 29 W/m2
15:26 5.7 °C 3.3 °C 1026 hPa Calm   -1607.7 km/h 85 % 0 mm 21 W/m2
15:31 5.7 °C 3.3 °C 1026 hPa Calm   -1607.7 km/h 85 % 0 mm 21 W/m2
15:36 5.7 °C 3.3 °C 1026 hPa Calm   -1607.7 km/h 85 % 0 mm 21 W/m2
15:41 5.6 °C 3.6 °C 1026 hPa Calm   -1607.7 km/h 87 % 0 mm 16 W/m2
15:46 5.6 °C 3.6 °C 1026 hPa Calm   -1607.7 km/h 87 % 0 mm 16 W/m2
15:51 5.6 °C 3.6 °C 1026 hPa Calm   -1607.7 km/h 87 % 0 mm 16 W/m2
15:56 5.5 °C 3.7 °C 1026 hPa Calm   -1607.7 km/h 88 % 0 mm 7 W/m2
16:01 5.5 °C 3.7 °C 1026 hPa Calm   -1607.7 km/h 88 % 0 mm 7 W/m2
16:06 5.5 °C 3.7 °C 1026 hPa Calm   -1607.7 km/h 88 % 0 mm 7 W/m2
16:11 5.3 °C 3.6 °C 1026 hPa Calm   -1607.7 km/h 89 % 0 mm 10 W/m2
16:16 5.3 °C 3.6 °C 1026 hPa Calm   -1607.7 km/h 89 % 0 mm 10 W/m2
16:21 5.3 °C 3.6 °C 1026 hPa Calm   -1607.7 km/h 89 % 0 mm 10 W/m2
16:26 5.1 °C 3.6 °C 1026 hPa Calm   -1607.7 km/h 90 % 0 mm 2 W/m2
16:31 5.1 °C 3.6 °C 1026 hPa Calm   -1607.7 km/h 90 % 0 mm 2 W/m2
16:36 5.1 °C 3.6 °C 1026 hPa Calm   -1607.7 km/h 90 % 0 mm 2 W/m2
16:41 4.9 °C 3.4 °C 1026 hPa Calm   -1607.7 km/h 90 % 0 mm 0 W/m2
16:46 4.9 °C 3.4 °C 1026 hPa Calm   -1607.7 km/h 90 % 0 mm 0 W/m2
16:51 4.9 °C 3.4 °C 1026 hPa Calm   -1607.7 km/h 90 % 0 mm 0 W/m2
16:56 4.7 °C 3.4 °C 1026 hPa Calm   -1607.7 km/h 91 % 0 mm 0 W/m2
17:01 4.7 °C 3.4 °C 1026 hPa Calm   -1607.7 km/h 91 % 0 mm 0 W/m2
17:06 4.7 °C 3.4 °C 1026 hPa Calm   -1607.7 km/h 91 % 0 mm 0 W/m2
17:11 4.5 °C 3.3 °C 1026 hPa Calm   -1607.7 km/h 92 % 0 mm 0 W/m2
17:16 4.5 °C 3.3 °C 1026 hPa Calm   -1607.7 km/h 92 % 0 mm 0 W/m2
17:21 4.5 °C 3.3 °C 1026 hPa Calm   -1607.7 km/h 92 % 0 mm 0 W/m2
17:26 4.4 °C 3.2 °C 1026 hPa Calm   -1607.7 km/h 92 % 0 mm 0 W/m2
17:31 4.4 °C 3.2 °C 1026 hPa Calm   -1607.7 km/h 92 % 0 mm 0 W/m2
17:36 4.4 °C 3.2 °C 1026 hPa Calm   -1607.7 km/h 92 % 0 mm 0 W/m2
17:41 4.3 °C 3.3 °C 1026 hPa Calm   -1607.7 km/h 93 % 0 mm 0 W/m2
17:46 4.3 °C 3.3 °C 1026 hPa Calm   -1607.7 km/h 93 % 0 mm 0 W/m2
17:51 4.3 °C 3.3 °C 1026 hPa Calm   -1607.7 km/h 93 % 0 mm 0 W/m2
17:56 4.2 °C 3 °C 1025.6 hPa Calm   -1607.7 km/h 92 % 0 mm 0 W/m2
18:01 4.2 °C 3 °C 1025.6 hPa Calm   -1607.7 km/h 92 % 0 mm 0 W/m2
18:06 4.2 °C 3 °C 1025.6 hPa Calm   -1607.7 km/h 92 % 0 mm 0 W/m2
18:11 3.7 °C 2.6 °C 1026 hPa Calm   -1607.7 km/h 92 % 0 mm 0 W/m2
18:16 3.7 °C 2.6 °C 1026 hPa Calm   -1607.7 km/h 92 % 0 mm 0 W/m2
18:21 3.7 °C 2.6 °C 1026 hPa Calm   -1607.7 km/h 92 % 0 mm 0 W/m2
18:26 3.2 °C 2 °C 1025.6 hPa Calm   -1607.7 km/h 92 % 0 mm 0 W/m2
18:31 3.2 °C 2 °C 1025.6 hPa Calm   -1607.7 km/h 92 % 0 mm 0 W/m2
18:36 3.2 °C 2 °C 1025.6 hPa Calm   -1607.7 km/h 92 % 0 mm 0 W/m2
18:41 2.7 °C 1.7 °C 1025.6 hPa Calm   -1607.7 km/h 93 % 0 mm 0 W/m2
18:46 2.7 °C 1.7 °C 1025.6 hPa Calm   -1607.7 km/h 93 % 0 mm 0 W/m2
18:51 2.7 °C 1.7 °C 1025.6 hPa Calm   -1607.7 km/h 93 % 0 mm 0 W/m2
18:56 2.3 °C 1.4 °C 1025.6 hPa Calm   -1607.7 km/h 94 % 0 mm 0 W/m2
19:01 2.3 °C 1.4 °C 1025.6 hPa Calm   -1607.7 km/h 94 % 0 mm 0 W/m2
19:06 2.3 °C 1.4 °C 1025.6 hPa Calm   -1607.7 km/h 94 % 0 mm 0 W/m2
19:11 2.1 °C 1.2 °C 1026 hPa Calm   -1607.7 km/h 94 % 0 mm 0 W/m2
19:16 2.1 °C 1.2 °C 1026 hPa Calm   -1607.7 km/h 94 % 0 mm 0 W/m2
19:21 2.1 °C 1.2 °C 1026 hPa Calm   -1607.7 km/h 94 % 0 mm 0 W/m2
19:26 1.8 °C 0.9 °C 1026 hPa Calm   -1607.7 km/h 94 % 0 mm 0 W/m2
19:31 1.8 °C 0.9 °C 1026 hPa Calm   -1607.7 km/h 94 % 0 mm 0 W/m2
19:36 1.8 °C 0.9 °C 1026 hPa Calm   -1607.7 km/h 94 % 0 mm 0 W/m2
19:41 1.7 °C 1 °C 1025.6 hPa Calm   -1607.7 km/h 95 % 0 mm 0 W/m2
19:46 1.7 °C 1 °C 1025.6 hPa Calm   -1607.7 km/h 95 % 0 mm 0 W/m2
19:51 1.7 °C 1 °C 1025.6 hPa Calm   -1607.7 km/h 95 % 0 mm 0 W/m2
19:56 1.6 °C 0.7 °C 1025.6 hPa Calm   -1607.7 km/h 94 % 0 mm 0 W/m2
20:01 1.6 °C 0.7 °C 1025.6 hPa Calm   -1607.7 km/h 94 % 0 mm 0 W/m2
20:06 1.6 °C 0.7 °C 1025.6 hPa Calm   -1607.7 km/h 94 % 0 mm 0 W/m2
20:11 1.2 °C 0.4 °C 1025.6 hPa Calm   -1607.7 km/h 94 % 0 mm 0 W/m2
20:16 1.2 °C 0.4 °C 1025.6 hPa Calm   -1607.7 km/h 94 % 0 mm 0 W/m2
20:21 1.2 °C 0.4 °C 1025.6 hPa Calm   -1607.7 km/h 94 % 0 mm 0 W/m2
20:26 0.9 °C 0.2 °C 1025.6 hPa Calm   -1607.7 km/h 95 % 0 mm 0 W/m2
20:31 0.9 °C 0.2 °C 1025.6 hPa Calm   -1607.7 km/h 95 % 0 mm 0 W/m2
20:36 0.9 °C 0.2 °C 1025.6 hPa Calm   -1607.7 km/h 95 % 0 mm 0 W/m2
20:41 0.7 °C 0 °C 1026 hPa Calm   -1607.7 km/h 95 % 0 mm 0 W/m2
20:46 0.7 °C 0 °C 1026 hPa Calm   -1607.7 km/h 95 % 0 mm 0 W/m2
20:51 0.7 °C 0 °C 1026 hPa Calm   -1607.7 km/h 95 % 0 mm 0 W/m2
20:56 0.6 °C -0.1 °C 1026 hPa Calm   -1607.7 km/h 95 % 0 mm 0 W/m2
21:01 0.6 °C -0.1 °C 1026 hPa Calm   -1607.7 km/h 95 % 0 mm 0 W/m2
21:06 0.6 °C -0.1 °C 1026 hPa Calm   -1607.7 km/h 95 % 0 mm 0 W/m2
21:11 0.5 °C -0.2 °C 1025.6 hPa Calm   -1607.7 km/h 95 % 0 mm 0 W/m2
21:16 0.5 °C -0.2 °C 1025.6 hPa Calm   -1607.7 km/h 95 % 0 mm 0 W/m2
21:21 0.5 °C -0.2 °C 1025.6 hPa Calm   -1607.7 km/h 95 % 0 mm 0 W/m2
21:26 0.3 °C -0.2 °C 1025.6 hPa Calm   -1607.7 km/h 96 % 0 mm 0 W/m2
21:31 0.3 °C -0.2 °C 1025.6 hPa Calm   -1607.7 km/h 96 % 0 mm 0 W/m2
21:36 0.3 °C -0.2 °C 1025.6 hPa Calm   -1607.7 km/h 96 % 0 mm 0 W/m2
21:41 0.2 °C -0.6 °C 1025.6 hPa Calm   -1607.7 km/h 95 % 0 mm 0 W/m2
21:46 0.2 °C -0.6 °C 1025.6 hPa Calm   -1607.7 km/h 95 % 0 mm 0 W/m2
21:51 0.2 °C -0.6 °C 1025.6 hPa Calm   -1607.7 km/h 95 % 0 mm 0 W/m2
21:56 0.1 °C -0.5 °C 1025.6 hPa Calm   -1607.7 km/h 96 % 0 mm 0 W/m2
22:01 0.1 °C -0.5 °C 1025.6 hPa Calm   -1607.7 km/h 96 % 0 mm 0 W/m2
22:06 0.1 °C -0.5 °C 1025.6 hPa Calm   -1607.7 km/h 96 % 0 mm 0 W/m2
22:11 0.1 °C -0.5 °C 1025.6 hPa Calm   -1607.7 km/h 96 % 0 mm 0 W/m2
22:16 0.1 °C -0.5 °C 1025.6 hPa Calm   -1607.7 km/h 96 % 0 mm 0 W/m2
22:21 0.1 °C -0.5 °C 1025.6 hPa Calm   -1607.7 km/h 96 % 0 mm 0 W/m2
22:26 -0.1 °C -0.6 °C 1025.6 hPa Calm   -1607.7 km/h 96 % 0 mm 0 W/m2
22:31 -0.1 °C -0.6 °C 1025.6 hPa Calm   -1607.7 km/h 96 % 0 mm 0 W/m2
22:36 -0.1 °C -0.6 °C 1025.6 hPa Calm   -1607.7 km/h 96 % 0 mm 0 W/m2
22:41 0.1 °C -0.4 °C 1025.6 hPa Calm   -1607.7 km/h 96 % 0 mm 0 W/m2
22:46 0.1 °C -0.4 °C 1025.6 hPa Calm   -1607.7 km/h 96 % 0 mm 0 W/m2
22:51 0.1 °C -0.4 °C 1025.6 hPa Calm   -1607.7 km/h 96 % 0 mm 0 W/m2
22:56 0.1 °C -0.4 °C 1025.3 hPa Calm   -1607.7 km/h 96 % 0 mm 0 W/m2
23:01 0.1 °C -0.4 °C 1025.3 hPa Calm   -1607.7 km/h 96 % 0 mm 0 W/m2
23:06 0.1 °C -0.4 °C 1025.3 hPa Calm   -1607.7 km/h 96 % 0 mm 0 W/m2
23:11 0.1 °C -0.3 °C 1025.3 hPa Calm   -1607.7 km/h 97 % 0 mm 0 W/m2
23:16 0.1 °C -0.3 °C 1025.3 hPa Calm   -1607.7 km/h 97 % 0 mm 0 W/m2
23:21 0.1 °C -0.3 °C 1025.3 hPa Calm   -1607.7 km/h 97 % 0 mm 0 W/m2
23:26 0.3 °C -0.2 °C 1025.3 hPa Calm   -1607.7 km/h 97 % 0 mm 0 W/m2
23:31 0.3 °C -0.2 °C 1025.3 hPa Calm   -1607.7 km/h 97 % 0 mm 0 W/m2
23:36 0.3 °C -0.2 °C 1025.3 hPa Calm   -1607.7 km/h 97 % 0 mm 0 W/m2
23:41 0 °C -0.6 °C 1025.3 hPa Calm   -1607.7 km/h 96 % 0 mm 0 W/m2
23:46 0 °C -0.6 °C 1025.3 hPa Calm   -1607.7 km/h 96 % 0 mm 0 W/m2
23:51 0 °C -0.6 °C 1025.3 hPa Calm   -1607.7 km/h 96 % 0 mm 0 W/m2
23:56 -0.5 °C -1.1 °C 1024.9 hPa Calm   -1607.7 km/h 96 % 0 mm 0 W/m2
Delerius-Weather
Compliments of Weather Underground - 2.25 mb

Data updates at regular intervals.